Time;durP1;ratioP1;P1;durP2;ratioP2;P2;SDS_P1;SDS_P2;PMS_P1;PMS_P2;Temp;Humidity;BMP_temperature;BMP_pressure;BME280_temperature;BME280_humidity;BME280_pressure;Samples;Min_cycle;Max_cycle;Signal;HPM_P1;HPM_P2
2024/02/11 00:01:41;;;;;;;1.45;1.35;;;17.10;61.10;;;;;;6201615;22;20669;-87
2024/02/11 00:04:07;;;;;;;2.33;1.60;;;17.10;61.40;;;;;;6227097;22;20165;-86
2024/02/11 00:06:33;;;;;;;1.67;1.30;;;17.10;61.30;;;;;;6253601;22;20490;-87
2024/02/11 00:08:58;;;;;;;1.85;1.60;;;17.10;61.00;;;;;;6306317;22;20207;-86
2024/02/11 00:13:55;;;;;;;1.60;1.40;;;17.10;61.10;;;;;;6281667;22;20196;-86
2024/02/11 00:16:23;;;;;;;1.75;1.45;;;17.10;61.20;;;;;;6255277;22;20175;-86
2024/02/11 00:18:49;;;;;;;2.20;1.30;;;17.10;61.20;;;;;;6255546;22;20333;-85
2024/02/11 00:21:15;;;;;;;2.53;1.52;;;17.10;61.50;;;;;;6280395;22;20141;-86
2024/02/11 00:23:42;;;;;;;2.00;1.50;;;17.10;61.30;;;;;;6255101;22;20151;-86
2024/02/11 00:26:07;;;;;;;2.05;1.50;;;17.10;61.30;;;;;;6230922;22;20187;-86
2024/02/11 00:28:33;;;;;;;1.67;1.52;;;17.10;61.20;;;;;;6225941;22;20148;-86
2024/02/11 00:31:03;;;;;;;2.10;1.48;;;17.00;61.20;;;;;;6224569;22;20151;-87
2024/02/11 00:33:29;;;;;;;2.08;1.42;;;17.10;61.10;;;;;;6197905;22;20252;-86
2024/02/11 00:35:59;;;;;;;2.20;1.40;;;17.00;61.20;;;;;;6250966;22;20175;-87
2024/02/11 00:38:26;;;;;;;1.88;1.58;;;17.10;61.10;;;;;;6256289;22;20227;-87
2024/02/11 00:40:52;;;;;;;1.63;1.50;;;17.00;61.30;;;;;;6254972;22;20136;-87
2024/02/11 00:43:18;;;;;;;1.67;1.42;;;17.10;61.10;;;;;;6229661;22;20144;-87
2024/02/11 00:45:44;;;;;;;1.85;1.45;;;17.10;61.40;;;;;;6228981;22;20234;-87
2024/02/11 00:48:10;;;;;;;2.70;1.70;;;17.00;61.20;;;;;;6280380;22;20444;-86
2024/02/11 00:50:37;;;;;;;2.70;1.60;;;17.00;61.20;;;;;;6254549;22;20151;-86
2024/02/11 00:53:05;;;;;;;2.70;1.40;;;17.00;61.10;;;;;;6255450;22;20179;-86
2024/02/11 00:55:33;;;;;;;2.15;1.45;;;17.00;61.20;;;;;;6254991;22;20137;-86
2024/02/11 00:58:01;;;;;;;1.83;1.50;;;17.00;61.10;;;;;;6280258;22;20151;-86
2024/02/11 01:00:27;;;;;;;1.67;1.58;;;17.00;61.10;;;;;;6254606;22;20167;-86
2024/02/11 01:02:53;;;;;;;1.98;1.67;;;16.90;61.30;;;;;;6254483;22;20521;-86
2024/02/11 01:05:21;;;;;;;3.08;1.55;;;17.00;61.10;;;;;;6254755;22;20144;-86
2024/02/11 01:07:47;;;;;;;3.05;1.60;;;17.00;61.20;;;;;;6255534;22;20482;-87
2024/02/11 01:10:14;;;;;;;1.73;1.35;;;17.00;61.30;;;;;;6225399;22;20143;-87
2024/02/11 01:12:40;;;;;;;2.05;1.40;;;17.00;61.20;;;;;;6256827;22;20125;-86
2024/02/11 01:15:07;;;;;;;1.90;1.60;;;17.00;61.00;;;;;;6228911;22;20143;-86
2024/02/11 01:17:34;;;;;;;3.17;1.70;;;17.00;61.00;;;;;;6218866;22;20606;-87
2024/02/11 01:19:59;;;;;;;1.90;1.33;;;17.00;61.00;;;;;;6248370;22;20572;-87
2024/02/11 01:27:26;;;;;;;1.55;1.35;;;17.00;61.20;;;;;;6299862;22;20210;-86
2024/02/11 01:29:55;;;;;;;1.60;1.45;;;17.00;61.10;;;;;;6228359;22;20152;-86
2024/02/11 01:32:23;;;;;;;1.80;1.40;;;17.00;61.20;;;;;;6228754;22;20144;-86
2024/02/11 01:34:50;;;;;;;1.55;1.30;;;17.00;61.00;;;;;;6230078;22;20590;-86
2024/02/11 01:37:16;;;;;;;1.88;1.67;;;17.00;61.00;;;;;;6279851;22;20172;-85
2024/02/11 01:39:42;;;;;;;2.00;1.50;;;17.00;61.20;;;;;;6279506;22;20128;-85
2024/02/11 01:42:08;;;;;;;1.70;1.42;;;17.00;61.00;;;;;;6253715;22;20227;-86
2024/02/11 01:44:34;;;;;;;1.73;1.48;;;17.00;61.20;;;;;;6254096;22;20510;-85
2024/02/11 01:47:03;;;;;;;2.55;1.60;;;17.00;61.00;;;;;;6307408;22;20198;-85
2024/02/11 01:49:29;;;;;;;1.90;1.45;;;17.00;60.90;;;;;;6280873;22;20124;-86
2024/02/11 01:54:32;;;;;;;;;;;;;;;;;;;;;
2024/02/11 01:56:58;;;;;;;1.65;1.40;;;17.00;60.90;;;;;;6244536;22;20460;-85
2024/02/11 01:59:24;;;;;;;1.95;1.50;;;17.00;61.10;;;;;;6307358;22;20181;-86
2024/02/11 02:01:49;;;;;;;1.60;1.50;;;17.00;61.00;;;;;;6280073;22;20152;-86
2024/02/11 02:04:15;;;;;;;1.60;1.50;;;17.00;61.00;;;;;;6253495;22;20153;-86
2024/02/11 02:06:43;;;;;;;2.80;1.65;;;17.00;61.00;;;;;;6229809;22;20203;-87
2024/02/11 02:09:11;;;;;;;2.42;1.55;;;17.00;61.00;;;;;;6254931;22;20174;-86
2024/02/11 02:19:25;;;;;;;2.17;1.52;;;17.00;61.20;;;;;;6290530;22;20206;-85
2024/02/11 02:21:51;;;;;;;1.58;1.30;;;16.90;61.00;;;;;;6274730;22;20207;-86
2024/02/11 02:24:17;;;;;;;2.38;1.50;;;16.90;61.20;;;;;;6260980;22;20143;-86
2024/02/11 02:26:43;;;;;;;1.90;1.55;;;16.90;60.90;;;;;;6260056;22;20147;-87
2024/02/11 02:29:09;;;;;;;2.08;1.45;;;17.00;61.10;;;;;;6260538;22;20226;-86
2024/02/11 02:31:35;;;;;;;1.73;1.50;;;16.90;61.00;;;;;;6286002;22;20151;-86
2024/02/11 02:39:13;;;;;;;2.17;1.73;;;16.90;61.00;;;;;;6283339;22;20210;-86
2024/02/11 02:41:39;;;;;;;1.65;1.45;;;16.90;61.10;;;;;;6230008;22;20460;-85
2024/02/11 02:44:05;;;;;;;2.38;1.50;;;16.90;61.10;;;;;;6228036;22;20534;-86
2024/02/11 02:46:32;;;;;;;2.15;1.52;;;17.00;61.20;;;;;;6254339;22;20144;-84
2024/02/11 02:48:58;;;;;;;1.92;1.55;;;16.90;60.90;;;;;;6279400;22;20129;-85
2024/02/11 02:51:24;;;;;;;1.80;1.50;;;16.90;60.90;;;;;;6253284;22;20144;-87
2024/02/11 02:53:49;;;;;;;1.77;1.55;;;17.00;61.20;;;;;;6254370;22;20628;-86
2024/02/11 02:58:52;;;;;;;2.20;1.77;;;16.90;61.00;;;;;;6295942;22;20207;-85
2024/02/11 03:01:24;;;;;;;2.25;1.42;;;16.90;60.90;;;;;;6252754;22;20133;-87
2024/02/11 03:09:17;;;;;;;2.15;1.73;;;16.90;60.80;;;;;;6293083;22;20249;-88
2024/02/11 03:11:49;;;;;;;2.22;1.48;;;16.90;60.90;;;;;;6226742;22;20152;-88
2024/02/11 03:14:15;;;;;;;2.35;1.90;;;16.80;60.90;;;;;;6228164;22;20178;-87
2024/02/11 03:16:43;;;;;;;1.90;1.60;;;16.90;60.90;;;;;;6254909;22;20155;-88
2024/02/11 03:19:09;;;;;;;2.45;1.40;;;17.00;60.90;;;;;;6281147;22;20162;-87
2024/02/11 03:21:35;;;;;;;2.40;1.70;;;16.90;61.00;;;;;;6254795;22;20517;-87
2024/02/11 03:24:04;;;;;;;2.92;1.75;;;16.90;60.90;;;;;;6280864;22;20460;-87
2024/02/11 03:26:29;;;;;;;1.90;1.48;;;16.90;60.80;;;;;;6255667;22;20555;-86
2024/02/11 03:28:55;;;;;;;2.10;1.52;;;16.90;60.80;;;;;;6253682;22;20234;-88
2024/02/11 03:33:48;;;;;;;1.90;1.60;;;16.90;61.00;;;;;;6272698;22;20545;-86
2024/02/11 03:36:16;;;;;;;1.80;1.48;;;16.90;61.00;;;;;;6202045;22;20211;-86
2024/02/11 03:38:42;;;;;;;1.83;1.55;;;16.90;60.90;;;;;;6213076;22;20200;-87
2024/02/11 03:41:08;;;;;;;2.40;1.60;;;16.90;60.80;;;;;;6222234;22;20133;-86
2024/02/11 03:49:36;;;;;;;1.70;1.45;;;16.90;61.00;;;;;;6276230;22;20180;-86
2024/02/11 03:52:03;;;;;;;2.13;1.52;;;16.90;60.90;;;;;;6248593;22;20151;-87
2024/02/11 03:54:28;;;;;;;2.80;1.52;;;16.90;60.80;;;;;;6274563;22;20171;-87
2024/02/11 03:56:54;;;;;;;1.85;1.50;;;16.90;60.80;;;;;;6198008;22;20180;-86
2024/02/11 03:59:20;;;;;;;2.22;1.67;;;16.90;60.80;;;;;;6197929;22;20591;-85
2024/02/11 04:01:47;;;;;;;2.03;1.70;;;16.90;60.70;;;;;;6223283;22;20151;-86
2024/02/11 04:04:13;;;;;;;1.73;1.48;;;16.90;60.80;;;;;;6275649;22;20136;-86
2024/02/11 04:06:41;;;;;;;1.98;1.60;;;16.90;60.70;;;;;;6248163;22;20530;-85
2024/02/11 04:09:09;;;;;;;2.45;1.70;;;16.90;60.90;;;;;;6224295;22;20141;-87
2024/02/11 04:11:41;;;;;;;2.17;1.67;;;16.90;60.60;;;;;;6223177;22;20144;-86
2024/02/11 04:22:04;;;;;;;2.35;1.70;;;16.90;60.70;;;;;;6307034;22;20214;-86
2024/02/11 04:30:03;;;;;;;2.00;1.70;;;16.90;60.80;;;;;;6305646;22;20503;-86
2024/02/11 04:32:29;;;;;;;1.90;1.70;;;16.90;60.70;;;;;;6279880;22;20128;-87
2024/02/11 04:34:55;;;;;;;2.20;1.67;;;16.90;60.50;;;;;;6229426;22;20489;-86
2024/02/11 04:37:24;;;;;;;1.88;1.65;;;16.90;60.70;;;;;;6254037;22;20608;-87
2024/02/11 04:39:49;;;;;;;2.08;1.60;;;16.90;60.70;;;;;;6255093;22;20133;-86
2024/02/11 04:42:23;;;;;;;1.38;1.27;;;16.90;60.60;;;;;;6280239;22;20138;-86
2024/02/11 04:44:51;;;;;;;2.55;1.67;;;16.90;60.70;;;;;;6181618;22;20197;-85
2024/02/11 04:47:17;;;;;;;1.73;1.60;;;16.90;60.60;;;;;;6253069;22;20149;-85
2024/02/11 04:49:44;;;;;;;2.33;1.75;;;16.90;60.70;;;;;;6279958;22;20133;-86
2024/02/11 04:52:09;;;;;;;2.03;1.55;;;16.80;60.70;;;;;;6255875;22;20127;-85
2024/02/11 04:54:35;;;;;;;2.05;1.60;;;16.90;60.50;;;;;;6308873;22;20132;-86
2024/02/11 04:57:03;;;;;;;2.40;1.90;;;16.90;60.70;;;;;;6256462;22;20229;-86
2024/02/11 04:59:29;;;;;;;2.50;1.83;;;16.80;60.60;;;;;;6257366;22;20183;-85
2024/02/11 05:01:55;;;;;;;1.58;1.48;;;16.80;60.60;;;;;;6255845;22;20140;-86
2024/02/11 05:04:20;;;;;;;2.38;1.58;;;16.80;60.50;;;;;;6222990;22;20215;-85
2024/02/11 05:06:46;;;;;;;2.35;1.92;;;16.90;60.70;;;;;;6219564;23;20149;-86
2024/02/11 05:09:15;;;;;;;2.35;1.90;;;16.80;60.60;;;;;;6244459;23;20229;-86
2024/02/11 05:11:41;;;;;;;1.63;1.50;;;16.90;60.60;;;;;;6244125;23;20616;-85
2024/02/11 05:14:07;;;;;;;1.90;1.60;;;16.90;60.40;;;;;;6261949;22;20256;-86
2024/02/11 05:16:34;;;;;;;2.08;1.80;;;16.90;60.70;;;;;;6228359;22;20190;-86
2024/02/11 05:19:01;;;;;;;2.00;1.50;;;16.90;60.60;;;;;;6279851;22;20128;-86
2024/02/11 05:21:27;;;;;;;2.20;1.70;;;16.80;60.70;;;;;;6279636;22;20475;-87
2024/02/11 05:23:54;;;;;;;1.50;1.40;;;16.80;60.70;;;;;;6254724;22;20140;-86
2024/02/11 05:26:21;;;;;;;2.60;1.83;;;16.90;60.50;;;;;;6253996;22;20168;-86
2024/02/11 05:28:47;;;;;;;2.08;1.80;;;16.80;60.30;;;;;;6253673;22;20144;-86
2024/02/11 05:31:20;;;;;;;2.28;1.80;;;16.90;60.50;;;;;;6307123;22;20128;-85
2024/02/11 05:33:46;;;;;;;2.42;1.73;;;16.90;60.30;;;;;;6254693;22;20178;-87
2024/02/11 05:36:13;;;;;;;2.03;1.83;;;16.80;60.40;;;;;;6279665;22;20160;-86
2024/02/11 05:38:40;;;;;;;2.08;1.80;;;16.90;60.50;;;;;;6277859;22;20218;-86
2024/02/11 05:41:07;;;;;;;1.60;1.48;;;16.80;60.40;;;;;;6259800;22;20185;-87
2024/02/11 05:43:33;;;;;;;2.10;1.60;;;16.90;60.40;;;;;;6284900;22;20228;-86
2024/02/11 05:48:34;;;;;;;2.60;1.80;;;16.90;60.40;;;;;;6305603;22;20233;-85
2024/02/11 05:51:00;;;;;;;2.00;1.60;;;16.80;60.40;;;;;;6229120;22;20159;-87
2024/02/11 05:53:26;;;;;;;2.47;1.80;;;16.80;60.40;;;;;;6227718;22;20571;-85
2024/02/11 05:55:53;;;;;;;2.15;1.90;;;16.90;60.50;;;;;;6279053;22;20146;-86
2024/02/11 05:58:20;;;;;;;3.42;2.05;;;16.80;60.50;;;;;;6279757;22;20129;-87
2024/02/11 06:03:22;;;;;;;2.42;2.00;;;16.90;60.50;;;;;;6299650;22;20211;-85
2024/02/11 06:05:49;;;;;;;1.92;1.52;;;16.80;60.40;;;;;;6254805;22;20261;-86
2024/02/11 06:08:15;;;;;;;1.70;1.60;;;16.80;60.40;;;;;;6229262;22;20154;-87
2024/02/11 06:10:41;;;;;;;1.92;1.73;;;16.80;60.50;;;;;;6279402;22;20132;-86
2024/02/11 06:13:08;;;;;;;2.95;1.60;;;16.80;60.40;;;;;;6254518;22;20132;-86
2024/02/11 06:15:37;;;;;;;2.33;1.70;;;16.80;60.30;;;;;;6256539;22;20128;-87
2024/02/11 06:18:03;;;;;;;2.20;2.00;;;16.90;59.90;;;;;;6230889;22;20495;-85
2024/02/11 06:20:32;;;;;;;2.17;1.70;;;16.90;60.10;;;;;;6253440;22;20234;-86
2024/02/11 06:22:58;;;;;;;2.72;1.95;;;16.80;59.90;;;;;;6253506;22;20144;-86
2024/02/11 06:25:24;;;;;;;2.50;1.70;;;16.90;60.10;;;;;;6252287;22;20167;-86
2024/02/11 06:27:50;;;;;;;2.08;1.60;;;16.80;60.00;;;;;;6302891;22;20155;-86
2024/02/11 06:30:17;;;;;;;2.63;1.75;;;16.80;60.10;;;;;;6252176;22;20140;-86
2024/02/11 06:32:45;;;;;;;1.83;1.70;;;16.90;60.30;;;;;;6251567;22;20144;-86
2024/02/11 06:35:12;;;;;;;2.50;2.00;;;16.80;60.10;;;;;;6227847;22;20136;-86
2024/02/11 06:37:38;;;;;;;2.00;1.70;;;16.90;60.20;;;;;;6254534;22;20236;-86
2024/02/11 06:40:14;;;;;;;1.98;1.77;;;16.90;60.10;;;;;;6229838;22;20223;-86
2024/02/11 06:42:42;;;;;;;5.95;2.53;;;16.90;60.20;;;;;;6205865;22;20147;-86
2024/02/11 06:45:13;;;;;;;5.30;2.72;;;16.90;60.80;;;;;;6256334;22;20148;-85
2024/02/11 06:47:42;;;;;;;3.78;2.47;;;16.90;60.90;;;;;;6203339;22;20156;-86
2024/02/11 06:50:14;;;;;;;2.38;1.70;;;16.90;61.20;;;;;;6203311;22;20151;-87
2024/02/11 06:52:41;;;;;;;2.08;1.77;;;16.90;61.00;;;;;;6203337;22;20623;-86
2024/02/11 06:55:10;;;;;;;2.03;1.83;;;16.90;60.30;;;;;;6256056;22;20140;-87
2024/02/11 06:57:39;;;;;;;3.67;1.90;;;16.90;60.60;;;;;;6254966;22;20244;-87
2024/02/11 07:00:09;;;;;;;2.10;1.85;;;16.90;60.40;;;;;;6254336;22;20143;-87
2024/02/11 07:02:36;;;;;;;2.22;1.63;;;16.90;60.30;;;;;;6202717;22;20709;-86
2024/02/11 07:05:05;;;;;;;2.60;2.00;;;16.90;60.50;;;;;;6254600;22;20452;-87
2024/02/11 07:07:32;;;;;;;1.92;1.70;;;16.90;60.50;;;;;;6253958;22;20136;-87
2024/02/11 07:10:00;;;;;;;2.35;1.90;;;16.90;61.40;;;;;;6228977;22;20139;-86
2024/02/11 07:12:26;;;;;;;2.10;1.65;;;16.90;60.70;;;;;;6202260;22;20152;-86
2024/02/11 07:14:52;;;;;;;2.40;1.75;;;16.90;60.50;;;;;;6228343;22;20136;-86
2024/02/11 07:17:19;;;;;;;1.90;1.70;;;16.90;60.40;;;;;;6228366;22;20279;-86
2024/02/11 07:19:46;;;;;;;2.20;1.98;;;16.90;60.50;;;;;;6253670;22;20202;-86
2024/02/11 07:22:13;;;;;;;2.65;2.10;;;16.90;60.50;;;;;;6279766;22;20153;-86
2024/02/11 07:24:41;;;;;;;3.17;1.85;;;16.80;60.40;;;;;;6228539;22;20132;-87
2024/02/11 07:27:09;;;;;;;2.47;2.05;;;16.90;60.80;;;;;;6253167;22;20193;-86
2024/02/11 07:29:35;;;;;;;2.58;2.00;;;16.80;60.80;;;;;;6252753;22;20136;-86
2024/02/11 07:32:02;;;;;;;2.60;1.88;;;16.90;60.80;;;;;;6252753;22;20163;-86
2024/02/11 07:34:29;;;;;;;3.13;1.90;;;16.90;60.80;;;;;;6228059;22;20136;-86
2024/02/11 07:37:02;;;;;;;3.70;1.88;;;16.80;60.50;;;;;;6228210;22;20207;-85
2024/02/11 07:39:28;;;;;;;2.35;1.95;;;16.90;60.60;;;;;;6254571;22;20147;-87
2024/02/11 07:41:54;;;;;;;2.25;1.80;;;16.90;60.70;;;;;;6278684;22;20218;-87
2024/02/11 07:44:25;;;;;;;2.85;1.77;;;16.90;61.30;;;;;;6278751;22;20140;-87
2024/02/11 07:46:54;;;;;;;3.25;2.08;;;16.90;60.40;;;;;;6227556;22;20148;-87
2024/02/11 07:49:21;;;;;;;2.33;1.70;;;16.90;60.40;;;;;;6279720;22;20128;-86
2024/02/11 07:51:48;;;;;;;2.13;1.70;;;16.90;60.50;;;;;;6230044;22;20147;-87
2024/02/11 07:54:20;;;;;;;2.95;1.95;;;16.90;60.80;;;;;;6230257;22;20563;-88
2024/02/11 07:56:51;;;;;;;2.00;1.80;;;16.90;60.70;;;;;;6205324;22;20187;-88
2024/02/11 07:59:16;;;;;;;3.58;1.90;;;17.00;60.70;;;;;;6257399;22;20136;-87
2024/02/11 08:01:42;;;;;;;2.58;2.08;;;17.00;61.20;;;;;;6231577;22;20143;-87
2024/02/11 08:04:09;;;;;;;2.83;1.80;;;17.00;60.50;;;;;;6258704;22;20205;-86
2024/02/11 08:06:40;;;;;;;4.20;1.80;;;17.00;60.70;;;;;;6284774;22;20211;-87
2024/02/11 08:09:10;;;;;;;3.13;1.90;;;17.00;60.90;;;;;;6285135;22;20147;-88
2024/02/11 08:11:37;;;;;;;5.78;2.10;;;17.20;60.00;;;;;;6260620;22;20151;-88
2024/02/11 08:14:04;;;;;;;3.45;1.70;;;17.30;59.90;;;;;;6260222;22;20227;-87
2024/02/11 08:16:30;;;;;;;3.00;1.67;;;17.30;59.00;;;;;;6260536;22;20262;-88
2024/02/11 08:18:55;;;;;;;7.00;2.30;;;17.40;58.90;;;;;;6262653;22;20136;-86
2024/02/11 08:21:24;;;;;;;3.50;2.10;;;17.40;59.30;;;;;;6233941;22;20528;-88
2024/02/11 08:23:52;;;;;;;3.55;1.85;;;17.50;58.50;;;;;;6235065;22;20219;-88
2024/02/11 08:26:20;;;;;;;5.25;1.92;;;17.50;58.60;;;;;;6262240;22;20154;-89
2024/02/11 08:29:01;;;;;;;2.78;2.10;;;17.50;58.70;;;;;;6237787;22;20147;-87
2024/02/11 08:31:29;;;;;;;2.30;1.85;;;17.50;58.70;;;;;;6243281;22;20182;-87
2024/02/11 08:33:56;;;;;;;4.45;1.85;;;17.50;58.90;;;;;;6237160;22;20148;-89
2024/02/11 08:36:23;;;;;;;2.83;1.90;;;17.50;59.00;;;;;;6314552;22;20178;-87
2024/02/11 08:38:56;;;;;;;4.38;1.75;;;17.50;58.50;;;;;;6237623;22;20219;-88
2024/02/11 08:41:23;;;;;;;4.63;1.88;;;17.60;58.30;;;;;;6213769;22;20179;-87
2024/02/11 08:43:50;;;;;;;7.45;2.20;;;17.60;58.80;;;;;;6263409;22;20132;-87
2024/02/11 08:46:20;;;;;;;9.18;1.90;;;17.70;58.40;;;;;;6237194;22;20431;-87
2024/02/11 08:48:51;;;;;;;8.10;2.15;;;17.60;58.20;;;;;;6183132;22;20183;-86
2024/02/11 08:51:22;;;;;;;2.45;2.10;;;17.60;58.70;;;;;;6186388;22;20155;-88
2024/02/11 09:11:16;;;;;;;7.60;2.30;;;17.60;58.30;;;;;;6304509;22;20286;-84
2024/02/11 09:13:43;;;;;;;12.13;2.35;;;17.60;57.90;;;;;;6283540;22;20188;-85
2024/02/11 09:16:09;;;;;;;4.93;2.20;;;17.80;57.60;;;;;;6232837;22;20140;-86
2024/02/11 09:18:35;;;;;;;6.95;2.30;;;17.80;56.50;;;;;;6232123;22;20226;-86
2024/02/11 09:21:01;;;;;;;4.28;1.85;;;17.80;57.60;;;;;;6283086;22;20132;-86
2024/02/11 09:23:29;;;;;;;11.50;2.10;;;17.80;58.30;;;;;;6282854;22;20580;-86
2024/02/11 09:26:02;;;;;;;7.35;2.03;;;17.70;58.20;;;;;;6229945;22;20230;-86
2024/02/11 09:28:29;;;;;;;9.85;2.13;;;17.70;57.60;;;;;;6242547;22;20245;-86
2024/02/11 09:30:55;;;;;;;8.98;2.10;;;17.70;58.30;;;;;;6231541;22;20190;-85
2024/02/11 09:38:32;;;;;;;4.75;1.88;;;17.80;58.40;;;;;;6294692;22;20203;-86
2024/02/11 09:41:05;;;;;;;6.18;2.53;;;17.80;57.60;;;;;;6232045;22;20140;-86
2024/02/11 09:43:37;;;;;;;3.72;2.10;;;17.90;57.20;;;;;;6182014;22;20146;-86
2024/02/11 09:46:08;;;;;;;7.30;2.22;;;17.80;58.30;;;;;;6234128;22;20280;-87
2024/02/11 09:48:36;;;;;;;7.03;2.40;;;17.80;57.40;;;;;;6235999;22;20596;-86
2024/02/11 09:51:13;;;;;;;4.22;1.98;;;17.80;58.50;;;;;;6209487;22;20148;-86
2024/02/11 09:53:47;;;;;;;3.13;2.00;;;17.90;58.70;;;;;;6239360;22;20139;-86
2024/02/11 09:56:19;;;;;;;3.42;1.95;;;17.80;58.20;;;;;;6191321;22;20186;-85
2024/02/11 09:58:53;;;;;;;12.93;2.00;;;17.80;58.90;;;;;;6237664;22;20197;-85
2024/02/11 10:01:23;;;;;;;5.82;2.13;;;17.80;59.70;;;;;;6318140;22;20136;-87
2024/02/11 10:04:06;;;;;;;15.35;2.60;;;17.80;59.80;;;;;;6237427;22;20137;-87
2024/02/11 10:06:47;;;;;;;8.65;2.55;;;17.80;59.40;;;;;;6211500;22;20211;-86
2024/02/11 10:09:26;;;;;;;9.32;2.30;;;17.80;60.10;;;;;;6188109;22;20156;-88
2024/02/11 10:13:00;;;;;;;14.38;2.47;;;17.70;59.70;;;;;;6238833;22;20151;-88
2024/02/11 10:15:35;;;;;;;4.32;2.10;;;17.80;59.30;;;;;;6253242;22;20621;-87
2024/02/11 10:18:06;;;;;;;10.73;2.72;;;17.70;59.80;;;;;;6225442;22;20191;-87
2024/02/11 10:24:19;;;;;;;;;;;;;;;;;;;;;
2024/02/11 10:26:56;;;;;;;6.53;2.20;;;17.70;58.90;;;;;;6060991;23;20245;-89
2024/02/11 10:29:26;;;;;;;3.42;1.92;;;17.70;59.10;;;;;;6049026;23;20261;-87
2024/02/11 10:31:57;;;;;;;4.13;1.88;;;17.70;59.40;;;;;;6044911;23;20180;-87
2024/02/11 10:34:28;;;;;;;9.38;2.20;;;17.80;59.00;;;;;;6045833;23;20154;-89
2024/02/11 10:37:00;;;;;;;6.20;1.95;;;17.80;58.40;;;;;;6045448;23;20185;-87
2024/02/11 10:39:36;;;;;;;8.43;2.03;;;17.90;58.50;;;;;;6044616;23;20222;-87
2024/02/11 10:42:11;;;;;;;8.38;2.13;;;17.90;58.40;;;;;;6022800;23;20214;-88
2024/02/11 10:44:43;;;;;;;4.78;2.13;;;17.90;58.30;;;;;;6045924;23;20181;-87
2024/02/11 10:47:13;;;;;;;7.47;2.10;;;17.90;59.00;;;;;;6046002;23;20158;-87
2024/02/11 10:49:44;;;;;;;4.85;2.25;;;17.80;58.80;;;;;;6019937;23;20194;-86
2024/02/11 10:52:12;;;;;;;6.80;1.90;;;17.90;58.70;;;;;;6043275;23;20188;-87
2024/02/11 10:54:42;;;;;;;4.95;2.00;;;17.90;59.00;;;;;;6089472;23;20199;-88
2024/02/11 10:57:23;;;;;;;4.18;1.85;;;17.90;59.40;;;;;;6103154;23;20192;-88
2024/02/11 10:59:57;;;;;;;3.75;1.98;;;17.80;59.10;;;;;;6081299;23;20155;-88
2024/02/11 11:02:52;;;;;;;5.07;1.88;;;17.80;59.10;;;;;;6122209;22;20158;-89
2024/02/11 11:05:23;;;;;;;4.78;2.00;;;17.90;58.40;;;;;;6251492;22;20175;-88
2024/02/11 11:07:56;;;;;;;4.60;2.10;;;17.80;59.10;;;;;;6235325;22;20618;-87
2024/02/11 11:10:27;;;;;;;6.10;1.92;;;17.80;59.70;;;;;;6236028;22;20617;-86
2024/02/11 11:13:31;;;;;;;5.95;2.10;;;17.80;59.60;;;;;;6266292;22;20238;-87
2024/02/11 11:16:04;;;;;;;4.22;2.00;;;17.80;59.50;;;;;;6290375;22;20211;-87
2024/02/11 11:18:38;;;;;;;2.85;1.92;;;17.80;59.30;;;;;;6240917;22;20141;-86
2024/02/11 11:21:10;;;;;;;10.35;2.05;;;17.80;59.90;;;;;;6263074;22;20169;-88
2024/02/11 11:23:48;;;;;;;6.22;1.83;;;17.80;60.60;;;;;;6237275;22;20591;-87
2024/02/11 11:26:38;;;;;;;3.50;2.10;;;17.80;60.50;;;;;;6238173;22;20471;-87
2024/02/11 11:29:05;;;;;;;3.25;2.10;;;17.80;59.60;;;;;;6170830;23;20161;-88
2024/02/11 11:31:34;;;;;;;5.75;1.83;;;17.80;59.10;;;;;;6172001;23;20249;-86
2024/02/11 11:34:04;;;;;;;3.45;1.95;;;17.90;59.30;;;;;;6145795;23;20542;-86
2024/02/11 11:36:30;;;;;;;3.40;1.90;;;17.90;59.70;;;;;;6167681;23;20181;-87
2024/02/11 11:39:14;;;;;;;4.15;1.85;;;17.90;59.10;;;;;;6218416;23;20345;-86
2024/02/11 11:41:40;;;;;;;3.75;2.05;;;17.90;59.40;;;;;;6166566;23;20169;-87
2024/02/11 11:44:18;;;;;;;5.13;2.15;;;17.90;60.50;;;;;;6193336;23;20195;-86
2024/02/11 11:46:43;;;;;;;4.43;2.30;;;17.80;59.00;;;;;;6121943;23;20158;-86
2024/02/11 11:49:09;;;;;;;4.32;1.90;;;17.80;58.70;;;;;;6190590;23;20185;-86
2024/02/11 11:51:36;;;;;;;4.70;2.00;;;17.80;60.00;;;;;;6164769;23;20172;-86
2024/02/11 11:54:04;;;;;;;6.07;1.90;;;17.80;60.60;;;;;;6280670;22;20148;-86
2024/02/11 11:56:31;;;;;;;4.85;2.20;;;17.80;59.20;;;;;;6258624;22;20171;-86
2024/02/11 11:59:04;;;;;;;4.15;2.00;;;17.80;59.80;;;;;;6308517;22;20132;-86
2024/02/11 12:01:30;;;;;;;4.28;1.63;;;17.80;59.50;;;;;;6232998;22;20147;-86
2024/02/11 12:03:56;;;;;;;3.85;1.92;;;17.80;60.10;;;;;;6232421;22;20148;-86
2024/02/11 12:06:22;;;;;;;4.28;1.83;;;17.80;58.10;;;;;;6230948;22;20139;-86
2024/02/11 12:08:49;;;;;;;5.05;2.17;;;17.80;58.50;;;;;;6283558;22;20132;-86
2024/02/11 12:11:17;;;;;;;5.10;1.90;;;17.80;58.90;;;;;;6280946;22;20144;-85
2024/02/11 12:13:43;;;;;;;2.58;2.00;;;17.80;58.70;;;;;;6257357;22;20574;-86
2024/02/11 12:16:15;;;;;;;2.33;1.88;;;17.80;57.60;;;;;;6255122;22;20167;-86
2024/02/11 12:18:41;;;;;;;3.80;2.00;;;17.80;58.30;;;;;;6281776;22;20144;-86
2024/02/11 12:21:08;;;;;;;4.38;1.73;;;17.80;59.40;;;;;;6230454;22;20401;-86
2024/02/11 12:23:35;;;;;;;3.30;1.90;;;17.80;59.90;;;;;;6310449;22;20198;-85
2024/02/11 12:26:04;;;;;;;4.80;2.10;;;17.80;59.80;;;;;;6311131;22;20128;-86
2024/02/11 12:28:31;;;;;;;4.47;1.88;;;17.80;59.00;;;;;;6232816;22;20258;-86
2024/02/11 12:31:09;;;;;;;3.63;2.00;;;17.80;59.10;;;;;;6258756;22;20140;-85
2024/02/11 12:33:40;;;;;;;3.15;2.00;;;17.80;58.40;;;;;;6263733;22;20150;-85
2024/02/11 12:36:08;;;;;;;4.50;2.00;;;17.80;59.80;;;;;;6256871;22;20504;-86
2024/02/11 12:38:36;;;;;;;6.75;2.00;;;17.70;60.30;;;;;;6216503;22;20249;-87
2024/02/11 12:41:02;;;;;;;3.60;1.85;;;17.70;58.90;;;;;;6229111;22;20587;-86
2024/02/11 12:43:32;;;;;;;4.68;1.80;;;17.70;59.60;;;;;;6232124;22;20143;-87
2024/02/11 12:46:03;;;;;;;2.92;1.80;;;17.70;60.30;;;;;;6231431;22;20145;-87
2024/02/11 12:48:29;;;;;;;3.25;2.03;;;17.70;59.10;;;;;;6231944;22;20168;-87
2024/02/11 12:51:00;;;;;;;4.25;1.67;;;17.70;58.80;;;;;;6204995;22;20145;-87
2024/02/11 12:53:29;;;;;;;3.53;1.88;;;17.80;59.50;;;;;;6204564;22;20302;-87
2024/02/11 12:55:59;;;;;;;5.03;2.00;;;17.70;59.90;;;;;;6180050;22;20156;-85
2024/02/11 12:58:28;;;;;;;4.20;1.90;;;17.80;59.60;;;;;;6203342;22;20211;-88
2024/02/11 13:00:56;;;;;;;2.25;1.70;;;17.80;59.80;;;;;;6228306;22;20164;-88
2024/02/11 13:03:24;;;;;;;7.15;2.10;;;17.80;59.30;;;;;;6227961;22;20198;-86
2024/02/11 13:05:53;;;;;;;3.55;2.00;;;17.80;59.30;;;;;;6230361;22;20132;-87
2024/02/11 13:08:22;;;;;;;3.78;1.90;;;17.80;58.70;;;;;;6230054;22;20568;-88
2024/02/11 13:11:10;;;;;;;5.22;2.10;;;17.80;58.90;;;;;;6204144;22;20177;-87
2024/02/11 13:13:36;;;;;;;3.55;2.15;;;17.80;58.60;;;;;;6205238;23;20181;-88
2024/02/11 13:16:05;;;;;;;3.72;1.90;;;17.80;58.90;;;;;;6175419;23;20533;-87
2024/02/11 13:18:31;;;;;;;4.05;1.95;;;17.90;57.60;;;;;;6161070;23;20155;-87
2024/02/11 13:20:57;;;;;;;3.85;2.10;;;17.90;59.00;;;;;;6160351;23;20147;-87
2024/02/11 13:23:29;;;;;;;2.85;1.85;;;17.90;58.80;;;;;;6161302;23;20177;-88
2024/02/11 13:25:55;;;;;;;4.05;1.88;;;17.80;58.90;;;;;;6111435;23;20181;-87
2024/02/11 13:28:24;;;;;;;4.70;1.90;;;17.90;59.10;;;;;;6185059;23;20131;-85
2024/02/11 13:30:55;;;;;;;3.88;1.73;;;17.80;58.80;;;;;;6184696;23;20634;-87
2024/02/11 13:33:25;;;;;;;5.50;2.10;;;17.90;57.90;;;;;;6159954;23;20490;-87
2024/02/11 13:35:52;;;;;;;2.38;1.70;;;17.80;59.70;;;;;;6184297;23;20147;-86
2024/02/11 13:38:22;;;;;;;7.43;2.33;;;17.80;60.50;;;;;;6160221;23;20205;-87
2024/02/11 13:40:49;;;;;;;3.88;1.92;;;17.80;60.10;;;;;;6186472;23;20139;-87
2024/02/11 13:43:14;;;;;;;2.45;1.83;;;17.80;59.40;;;;;;6160817;23;20262;-87
2024/02/11 13:45:42;;;;;;;1.98;1.70;;;17.70;59.90;;;;;;6162483;23;20220;-86
2024/02/11 13:48:09;;;;;;;7.03;2.35;;;17.80;60.60;;;;;;6190102;23;20208;-87
2024/02/11 13:50:39;;;;;;;3.97;2.20;;;17.80;60.70;;;;;;6164994;23;20478;-87
2024/02/11 13:53:06;;;;;;;4.55;1.70;;;17.70;60.80;;;;;;6165813;23;20709;-87
2024/02/11 13:55:33;;;;;;;3.10;1.90;;;17.80;60.30;;;;;;6205654;23;20227;-87
2024/02/11 13:58:09;;;;;;;3.10;1.92;;;17.80;60.20;;;;;;6198817;23;20173;-86
2024/02/11 14:00:35;;;;;;;3.63;1.65;;;17.80;58.30;;;;;;6171810;23;20183;-87
2024/02/11 14:03:00;;;;;;;2.90;1.70;;;17.80;59.80;;;;;;6173526;23;20570;-87
2024/02/11 14:05:26;;;;;;;4.47;1.95;;;17.80;58.30;;;;;;6174539;23;20144;-87
2024/02/11 14:07:56;;;;;;;5.45;2.00;;;17.90;58.60;;;;;;6197579;23;20561;-87
2024/02/11 14:10:28;;;;;;;2.65;1.75;;;17.80;59.70;;;;;;6146306;23;20149;-86
2024/02/11 14:13:03;;;;;;;7.05;2.08;;;17.80;59.70;;;;;;6167846;22;20283;-87
2024/02/11 14:15:35;;;;;;;3.97;2.00;;;17.80;59.50;;;;;;6231237;22;20156;-86
2024/02/11 14:18:01;;;;;;;4.60;1.70;;;17.80;60.40;;;;;;6233225;22;20182;-87
2024/02/11 14:20:31;;;;;;;6.28;2.00;;;17.80;59.90;;;;;;6259208;22;20275;-86